Home   Weather   Germany   Viersen   Past weeks
Flag for Germany

Past Weather in Viersen, North Rhine-Westphalia, Germany — Yesterday and Last 2 Weeks

Currently: 59 °F. Passing clouds. (Weather station: Monchengladbach Airport, Germany). See more current weather

Past Weather in Viersen — Graph

°F

Viersen Temperature Yesterday

Maximum temperature yesterday: 72 °F (at 11:50 am)
Minimum temperature yesterday: 57 °F (at 3:50 am)
Average temperature yesterday: 65 °F

High & Low Weather Summary for the Past Weeks

 TemperatureHumidityPressure
High81 °F (Jul 18, 5:20 pm)100% (Jul 10, 4:20 am)30.27 "Hg (Jul 10, 4:20 am)
Low50 °F (Jul 21, 5:20 am)42% (Jul 23, 5:20 pm)29.74 "Hg (Jul 14, 6:50 pm)
Average66 °F81%30.03 "Hg
* Reported Jul 10 4:20 am — Jul 25 4:50 am, Viersen. Weather by CustomWeather, © 2021

Note: Actual official high and low records may vary slightly from our data, if they occured in-between our weather recording intervals... More about our weather records

Viersen Weather History for the Previous 24 Hours

Scroll right to see more
 ConditionsComfort  
Time TempWeatherWind HumidityBarometerVisibility
4:50 am
Sun, Jul 25
59 °FPartly sunny.2 mph100%29.77 "Hg2 mi
4:20 am59 °FPartly sunny.1 mph100%29.77 "Hg1 mi
3:50 am59 °FPassing clouds.No wind100%29.77 "Hg1 mi
3:20 am59 °FPassing clouds.2 mph100%29.77 "Hg1 mi
2:50 am61 °FPassing clouds.2 mph100%29.77 "Hg2 mi
2:20 am63 °FPassing clouds.2 mph94%29.77 "Hg3 mi
1:50 am63 °FPartly sunny.2 mph100%29.77 "Hg3 mi
1:20 am63 °FBroken clouds.1 mph100%29.80 "Hg4 mi
12:50 am63 °FOvercast.No wind100%29.80 "Hg4 mi
12:20 am63 °FPartly sunny.1 mph100%29.80 "Hg4 mi
11:50 pm
Sat, Jul 24
63 °FPartly sunny.3 mph94%29.77 "Hg4 mi
11:20 pm63 °FPartly sunny.2 mph100%29.77 "Hg4 mi
10:50 pm63 °FScattered clouds.5 mph100%29.77 "Hg5 mi
10:20 pm64 °FScattered clouds.3 mph94%29.80 "HgN/A
9:50 pm64 °FPartly sunny.2 mph100%29.77 "Hg6 mi
9:20 pm66 °FOvercast.5 mph94%29.77 "HgN/A
8:50 pm66 °FMostly cloudy.3 mph94%29.80 "HgN/A
8:20 pm68 °FPassing clouds.5 mph88%29.77 "HgN/A
7:50 pm68 °FClear.2 mph88%29.77 "Hg10 mi
7:20 pm68 °FClear.No wind94%29.77 "Hg10 mi
6:50 pm68 °FClear.2 mph88%29.77 "Hg10 mi
6:20 pm68 °FClear.1 mph88%29.77 "Hg10 mi
5:50 pm68 °FPassing clouds.2 mph88%29.80 "HgN/A
5:20 pm68 °FPassing clouds.2 mph88%29.80 "HgN/A
4:50 pm68 °FLight rain. Passing clouds.2 mph88%29.80 "HgN/A
4:20 pm68 °FPassing clouds.5 mph83%29.80 "HgN/A
3:50 pm70 °FPassing clouds.2 mph78%29.80 "HgN/A
3:20 pm70 °FPassing clouds.3 mph78%29.80 "HgN/A
2:50 pm70 °FPassing clouds.5 mph73%29.80 "HgN/A
1:50 pm70 °FClear.3 mph73%29.80 "Hg10 mi
1:20 pm68 °FClear.2 mph78%29.80 "Hg10 mi
12:50 pm70 °FClear.5 mph73%29.80 "Hg10 mi
12:20 pm70 °FSunny.5 mph69%29.77 "Hg10 mi
11:50 am72 °FPassing clouds.5 mph69%29.77 "HgN/A
11:20 am70 °FPassing clouds.6 mph73%29.77 "HgN/A
10:50 am70 °FPassing clouds.3 mph73%29.77 "HgN/A
10:20 am70 °FSunny.6 mph73%29.77 "Hg10 mi
9:50 am68 °FPassing clouds.5 mph73%29.77 "HgN/A
8:50 am66 °FSunny.3 mph83%29.80 "Hg10 mi
8:20 am64 °FSunny.1 mph88%29.80 "Hg10 mi
7:50 am63 °FSunny.2 mph88%29.80 "Hg10 mi
7:20 am61 °FSunny.1 mph88%29.83 "HgN/A
6:50 am59 °FSunny.2 mph94%29.83 "HgN/A
6:20 am61 °FScattered clouds.3 mph88%29.83 "HgN/A
Weather by CustomWeather, © 2021

See weather overview